首页
METAR-TAF:

METAR-TAF

机场 :

索菲亞機場

索菲亞, 保加利亚

纬度: 42-39N, 经度: 023-23E, 海拔: 586米

当前天气观测

该预报发布于15分钟前的08:30 UTC
风速5节,风向东转东南,在东转东北南转南东之间变化
温度 24°C
湿度 57%
气压 1016 hPa
能见度10公里或以上
少量云层高于6500英尺

METAR: LBSF 140830Z 11005KT 060V160 9999 FEW065 24/15 Q1016 NOSIG

时间: 11:45 (08:45 UTC)

预报

该预报发布于3小时和45分钟前的05:00 UTC
预报有效从14日的 06点(UTC)到 15日的 06点(UTC)
风速4节,风向多变
能见度10公里或以上
1500米以下无云,无积雨云
成为
从 14日的 09点(UTC)到 14日的 11点(UTC)
风速10节,风向东转东南
成为
从 14日的 20点(UTC)到 14日的 22点(UTC)
风速4节,风向多变

TAF: LBSF 140500Z 1406/1506 VRB04KT CAVOK BECMG 1409/1411 11010KT BECMG 1420/1422 VRB04KT

超过4000个机场的气象观测和天气预报(METAR&TAF报告)。

可查询的气象台以黄色和红色小点在地图上表示。

将鼠标移到小点上方,可查看气象台名称。

然后点击查看天气观测和预报。

如需切换地图:点击带黑十字的绿色按钮放大地图;点击带横线的绿色按钮缩小地图;或者点击绿色箭头查看邻近地区的地图。


METAR-TAF: